sensor_id;sensor_type;location;lat;lon;timestamp;pressure;altitude;pressure_sealevel;temperature;humidity
44297;BME280;51842;47.450;8.654;2023-05-12T00:00:15;95205.38;;;8.68;100.00
44297;BME280;51842;47.450;8.654;2023-05-12T00:02:41;95198.19;;;8.69;100.00
44297;BME280;51842;47.450;8.654;2023-05-12T00:05:08;95203.50;;;8.69;100.00
44297;BME280;51842;47.450;8.654;2023-05-12T00:07:34;95201.66;;;8.69;100.00
44297;BME280;51842;47.450;8.654;2023-05-12T00:10:01;95191.81;;;8.70;100.00
44297;BME280;51842;47.450;8.654;2023-05-12T00:12:27;95193.94;;;8.73;100.00
44297;BME280;51842;47.450;8.654;2023-05-12T00:14:52;95193.69;;;8.74;100.00
44297;BME280;51842;47.450;8.654;2023-05-12T00:17:18;95188.41;;;8.74;100.00
44297;BME280;51842;47.450;8.654;2023-05-12T00:19:44;95195.00;;;8.77;100.00
44297;BME280;51842;47.450;8.654;2023-05-12T00:22:10;95191.56;;;8.76;100.00
44297;BME280;51842;47.450;8.654;2023-05-12T00:24:36;95187.03;;;8.77;100.00
44297;BME280;51842;47.450;8.654;2023-05-12T00:27:02;95189.44;;;8.78;100.00
44297;BME280;51842;47.450;8.654;2023-05-12T00:29:28;95189.97;;;8.80;100.00
44297;BME280;51842;47.450;8.654;2023-05-12T00:31:56;95191.31;;;8.83;100.00
44297;BME280;51842;47.450;8.654;2023-05-12T00:34:22;95189.19;;;8.85;100.00
44297;BME280;51842;47.450;8.654;2023-05-12T00:36:48;95192.66;;;8.86;100.00
44297;BME280;51842;47.450;8.654;2023-05-12T00:39:13;95191.34;;;8.88;100.00
44297;BME280;51842;47.450;8.654;2023-05-12T00:41:39;95186.81;;;8.89;100.00
44297;BME280;51842;47.450;8.654;2023-05-12T00:44:05;95188.69;;;8.93;100.00
44297;BME280;51842;47.450;8.654;2023-05-12T00:46:31;95184.97;;;8.94;100.00
44297;BME280;51842;47.450;8.654;2023-05-12T00:48:57;95184.44;;;8.97;100.00
44297;BME280;51842;47.450;8.654;2023-05-12T00:51:25;95180.72;;;8.98;100.00
44297;BME280;51842;47.450;8.654;2023-05-12T00:53:52;95180.72;;;8.98;100.00
44297;BME280;51842;47.450;8.654;2023-05-12T00:56:18;95183.38;;;8.98;100.00
44297;BME280;51842;47.450;8.654;2023-05-12T00:58:45;95176.75;;;9.01;100.00
44297;BME280;51842;47.450;8.654;2023-05-12T01:01:11;95179.16;;;9.02;100.00
44297;BME280;51842;47.450;8.654;2023-05-12T01:03:37;95177.00;;;9.04;100.00
44297;BME280;51842;47.450;8.654;2023-05-12T01:06:35;95177.00;;;9.04;100.00
44297;BME280;51842;47.450;8.654;2023-05-12T01:09:03;95179.41;;;9.06;100.00
44297;BME280;51842;47.450;8.654;2023-05-12T01:11:29;95174.38;;;9.10;100.00
44297;BME280;51842;47.450;8.654;2023-05-12T01:13:54;95175.94;;;9.11;100.00
44297;BME280;51842;47.450;8.654;2023-05-12T01:16:27;95167.97;;;9.11;100.00
44297;BME280;51842;47.450;8.654;2023-05-12T01:18:55;95171.72;;;9.10;100.00
44297;BME280;51842;47.450;8.654;2023-05-12T01:21:21;95169.28;;;9.08;100.00
44297;BME280;51842;47.450;8.654;2023-05-12T01:24:04;95159.47;;;9.09;100.00
44297;BME280;51842;47.450;8.654;2023-05-12T01:26:31;95158.41;;;9.10;100.00
44297;BME280;51842;47.450;8.654;2023-05-12T01:29:00;95160.28;;;9.09;100.00
44297;BME280;51842;47.450;8.654;2023-05-12T01:31:28;95161.59;;;9.07;100.00
44297;BME280;51842;47.450;8.654;2023-05-12T01:33:54;95162.66;;;9.06;100.00
44297;BME280;51842;47.450;8.654;2023-05-12T01:36:19;95160.53;;;9.08;100.00
44297;BME280;51842;47.450;8.654;2023-05-12T01:38:45;95161.59;;;9.07;100.00
44297;BME280;51842;47.450;8.654;2023-05-12T01:41:11;95159.19;;;9.05;100.00
44297;BME280;51842;47.450;8.654;2023-05-12T01:43:37;95155.75;;;9.04;100.00
44297;BME280;51842;47.450;8.654;2023-05-12T01:46:02;95163.72;;;9.04;100.00
44297;BME280;51842;47.450;8.654;2023-05-12T01:48:28;95164.25;;;9.01;100.00
44297;BME280;51842;47.450;8.654;2023-05-12T01:50:54;95157.34;;;9.00;100.00
44297;BME280;51842;47.450;8.654;2023-05-12T01:53:20;95165.56;;;8.99;100.00
44297;BME280;51842;47.450;8.654;2023-05-12T01:55:45;95163.72;;;8.99;100.00
44297;BME280;51842;47.450;8.654;2023-05-12T01:58:11;95167.97;;;9.00;100.00
44297;BME280;51842;47.450;8.654;2023-05-12T02:00:37;95164.78;;;8.98;100.00
44297;BME280;51842;47.450;8.654;2023-05-12T02:03:03;95167.44;;;8.98;100.00
44297;BME280;51842;47.450;8.654;2023-05-12T02:05:29;95171.16;;;8.97;100.00
44297;BME280;51842;47.450;8.654;2023-05-12T02:07:54;95169.84;;;9.00;100.00
44297;BME280;51842;47.450;8.654;2023-05-12T02:10:20;95171.44;;;9.01;100.00
44297;BME280;51842;47.450;8.654;2023-05-12T02:12:46;95170.34;;;9.02;100.00
44297;BME280;51842;47.450;8.654;2023-05-12T02:15:12;95173.84;;;9.02;100.00
44297;BME280;51842;47.450;8.654;2023-05-12T02:17:38;95173.56;;;9.04;100.00
44297;BME280;51842;47.450;8.654;2023-05-12T02:20:04;95170.91;;;9.04;100.00
44297;BME280;51842;47.450;8.654;2023-05-12T02:22:30;95174.63;;;9.03;100.00
44297;BME280;51842;47.450;8.654;2023-05-12T02:24:55;95168.78;;;9.06;100.00
44297;BME280;51842;47.450;8.654;2023-05-12T02:27:21;95171.44;;;9.06;100.00
44297;BME280;51842;47.450;8.654;2023-05-12T02:29:47;95175.41;;;9.09;100.00
44297;BME280;51842;47.450;8.654;2023-05-12T02:32:13;95170.91;;;9.09;100.00
44297;BME280;51842;47.450;8.654;2023-05-12T02:34:39;95169.06;;;9.10;100.00
44297;BME280;51842;47.450;8.654;2023-05-12T02:37:04;95167.97;;;9.11;100.00
44297;BME280;51842;47.450;8.654;2023-05-12T02:39:30;95170.38;;;9.12;100.00
44297;BME280;51842;47.450;8.654;2023-05-12T02:41:56;95161.34;;;9.13;100.00
44297;BME280;51842;47.450;8.654;2023-05-12T02:44:21;95170.09;;;9.14;100.00
44297;BME280;51842;47.450;8.654;2023-05-12T02:46:47;95166.38;;;9.15;100.00
44297;BME280;51842;47.450;8.654;2023-05-12T02:49:13;95168.00;;;9.16;100.00
44297;BME280;51842;47.450;8.654;2023-05-12T02:51:38;95164.53;;;9.15;100.00
44297;BME280;51842;47.450;8.654;2023-05-12T02:54:04;95168.25;;;9.14;100.00
44297;BME280;51842;47.450;8.654;2023-05-12T02:56:31;95156.56;;;9.15;100.00
44297;BME280;51842;47.450;8.654;2023-05-12T02:58:56;95157.38;;;9.16;100.00
44297;BME280;51842;47.450;8.654;2023-05-12T03:01:22;95161.06;;;9.15;100.00
44297;BME280;51842;47.450;8.654;2023-05-12T03:03:48;95158.94;;;9.17;100.00
44297;BME280;51842;47.450;8.654;2023-05-12T03:06:14;95157.09;;;9.17;100.00
44297;BME280;51842;47.450;8.654;2023-05-12T03:08:40;95160.81;;;9.16;100.00
44297;BME280;51842;47.450;8.654;2023-05-12T03:11:05;95154.41;;;9.17;100.00
44297;BME280;51842;47.450;8.654;2023-05-12T03:13:31;95156.84;;;9.19;100.00
44297;BME280;51842;47.450;8.654;2023-05-12T03:15:57;95154.97;;;9.19;100.00
44297;BME280;51842;47.450;8.654;2023-05-12T03:18:26;95156.31;;;9.22;100.00
44297;BME280;51842;47.450;8.654;2023-05-12T03:20:53;95152.56;;;9.23;100.00
44297;BME280;51842;47.450;8.654;2023-05-12T03:23:19;95155.75;;;9.20;100.00
44297;BME280;51842;47.450;8.654;2023-05-12T03:25:44;95156.03;;;9.18;100.00
44297;BME280;51842;47.450;8.654;2023-05-12T03:28:10;95150.72;;;9.18;100.00
44297;BME280;51842;47.450;8.654;2023-05-12T03:30:36;95155.75;;;9.20;100.00
44297;BME280;51842;47.450;8.654;2023-05-12T03:33:01;95151.50;;;9.19;100.00
44297;BME280;51842;47.450;8.654;2023-05-12T03:35:27;95151.25;;;9.20;100.00
44297;BME280;51842;47.450;8.654;2023-05-12T03:37:53;95146.19;;;9.19;100.00
44297;BME280;51842;47.450;8.654;2023-05-12T03:40:19;95157.38;;;9.16;100.00
44297;BME280;51842;47.450;8.654;2023-05-12T03:42:44;95154.44;;;9.12;100.00
44297;BME280;51842;47.450;8.654;2023-05-12T03:45:11;95153.34;;;9.08;100.00
44297;BME280;51842;47.450;8.654;2023-05-12T03:47:37;95146.72;;;9.11;100.00
44297;BME280;51842;47.450;8.654;2023-05-12T03:50:03;95152.81;;;9.11;100.00
44297;BME280;51842;47.450;8.654;2023-05-12T03:52:28;95149.91;;;9.13;100.00
44297;BME280;51842;47.450;8.654;2023-05-12T03:54:54;95151.78;;;9.12;100.00
44297;BME280;51842;47.450;8.654;2023-05-12T03:57:20;95142.19;;;9.11;100.00
44297;BME280;51842;47.450;8.654;2023-05-12T03:59:46;95149.38;;;9.11;100.00
44297;BME280;51842;47.450;8.654;2023-05-12T04:02:11;95145.94;;;9.10;100.00
44297;BME280;51842;47.450;8.654;2023-05-12T04:04:37;95136.91;;;9.06;100.00
44297;BME280;51842;47.450;8.654;2023-05-12T04:07:03;95134.78;;;9.03;100.00
44297;BME280;51842;47.450;8.654;2023-05-12T04:09:32;95129.19;;;8.99;100.00
44297;BME280;51842;47.450;8.654;2023-05-12T04:11:58;95141.66;;;8.99;100.00
44297;BME280;51842;47.450;8.654;2023-05-12T04:14:24;95143.00;;;9.01;100.00
44297;BME280;51842;47.450;8.654;2023-05-12T04:16:50;95140.88;;;9.03;100.00
44297;BME280;51842;47.450;8.654;2023-05-12T04:19:16;95141.13;;;9.02;100.00
44297;BME280;51842;47.450;8.654;2023-05-12T04:21:41;95140.88;;;9.09;100.00
44297;BME280;51842;47.450;8.654;2023-05-12T04:24:07;95142.19;;;9.11;100.00
44297;BME280;51842;47.450;8.654;2023-05-12T04:26:33;95143.53;;;9.14;100.00
44297;BME280;51842;47.450;8.654;2023-05-12T04:28:58;95151.50;;;9.14;100.00
44297;BME280;51842;47.450;8.654;2023-05-12T04:31:24;95152.03;;;9.11;100.00
44297;BME280;51842;47.450;8.654;2023-05-12T04:33:50;95152.81;;;9.11;100.00
44297;BME280;51842;47.450;8.654;2023-05-12T04:36:16;95156.81;;;9.14;100.00
44297;BME280;51842;47.450;8.654;2023-05-12T04:38:42;95158.94;;;9.17;100.00
44297;BME280;51842;47.450;8.654;2023-05-12T04:41:09;95157.34;;;9.21;100.00
44297;BME280;51842;47.450;8.654;2023-05-12T04:43:35;95154.69;;;9.26;100.00
44297;BME280;51842;47.450;8.654;2023-05-12T04:46:01;95160.81;;;9.32;100.00
44297;BME280;51842;47.450;8.654;2023-05-12T04:48:27;95157.09;;;9.33;100.00
44297;BME280;51842;47.450;8.654;2023-05-12T04:50:58;95163.19;;;9.38;100.00
44297;BME280;51842;47.450;8.654;2023-05-12T04:53:28;95169.31;;;9.44;100.00
44297;BME280;51842;47.450;8.654;2023-05-12T04:55:53;95165.59;;;9.50;100.00
44297;BME280;51842;47.450;8.654;2023-05-12T04:58:21;95163.69;;;9.56;100.00
44297;BME280;51842;47.450;8.654;2023-05-12T05:00:46;95164.50;;;9.66;100.00
44297;BME280;51842;47.450;8.654;2023-05-12T05:03:12;95163.97;;;9.75;100.00
44297;BME280;51842;47.450;8.654;2023-05-12T05:05:38;95172.19;;;9.78;100.00
44297;BME280;51842;47.450;8.654;2023-05-12T05:08:04;95180.94;;;9.84;100.00
44297;BME280;51842;47.450;8.654;2023-05-12T05:10:29;95174.00;;;9.93;100.00
44297;BME280;51842;47.450;8.654;2023-05-12T05:12:55;95166.28;;;10.07;100.00
44297;BME280;51842;47.450;8.654;2023-05-12T05:15:21;95167.03;;;10.17;100.00
44297;BME280;51842;47.450;8.654;2023-05-12T05:17:47;95169.69;;;10.23;100.00
44297;BME280;51842;47.450;8.654;2023-05-12T05:20:14;95176.31;;;10.40;100.00
44297;BME280;51842;47.450;8.654;2023-05-12T05:22:40;95177.31;;;10.50;100.00
44297;BME280;51842;47.450;8.654;2023-05-12T05:25:06;95176.22;;;10.56;100.00
44297;BME280;51842;47.450;8.654;2023-05-12T05:27:33;95179.19;;;10.49;100.00
44297;BME280;51842;47.450;8.654;2023-05-12T05:29:58;95179.66;;;10.61;100.00
44297;BME280;51842;47.450;8.654;2023-05-12T05:32:24;95187.59;;;10.72;100.00
44297;BME280;51842;47.450;8.654;2023-05-12T05:34:50;95177.94;;;10.81;100.00
44297;BME280;51842;47.450;8.654;2023-05-12T05:37:17;95183.53;;;10.84;100.00
44297;BME280;51842;47.450;8.654;2023-05-12T05:39:43;95181.63;;;10.90;100.00
44297;BME280;51842;47.450;8.654;2023-05-12T05:42:09;95181.91;;;10.94;100.00
44297;BME280;51842;47.450;8.654;2023-05-12T05:44:35;95178.88;;;11.05;100.00
44297;BME280;51842;47.450;8.654;2023-05-12T05:47:00;95181.50;;;11.10;100.00
44297;BME280;51842;47.450;8.654;2023-05-12T05:49:27;95181.72;;;11.19;100.00
44297;BME280;51842;47.450;8.654;2023-05-12T05:51:53;95178.41;;;11.32;100.00
44297;BME280;51842;47.450;8.654;2023-05-12T05:54:19;95182.31;;;11.45;99.65
44297;BME280;51842;47.450;8.654;2023-05-12T05:56:44;95184.09;;;11.55;98.29
44297;BME280;51842;47.450;8.654;2023-05-12T05:59:10;95181.06;;;11.67;95.85
44297;BME280;51842;47.450;8.654;2023-05-12T06:01:38;95189.50;;;11.79;95.28
44297;BME280;51842;47.450;8.654;2023-05-12T06:04:04;95187.78;;;11.93;95.63
44297;BME280;51842;47.450;8.654;2023-05-12T06:06:30;95189.50;;;12.08;94.27
44297;BME280;51842;47.450;8.654;2023-05-12T06:08:55;95184.56;;;12.20;93.58
44297;BME280;51842;47.450;8.654;2023-05-12T06:11:22;95189.00;;;12.30;92.14
44297;BME280;51842;47.450;8.654;2023-05-12T06:13:47;95187.69;;;12.27;90.68
44297;BME280;51842;47.450;8.654;2023-05-12T06:16:13;95189.59;;;12.46;90.88
44297;BME280;51842;47.450;8.654;2023-05-12T06:18:39;95192.41;;;12.60;91.18
44297;BME280;51842;47.450;8.654;2023-05-12T06:21:05;95193.03;;;12.27;88.01
44297;BME280;51842;47.450;8.654;2023-05-12T06:23:30;95194.47;;;11.91;89.17
44297;BME280;51842;47.450;8.654;2023-05-12T06:25:56;95197.97;;;12.15;90.89
44297;BME280;51842;47.450;8.654;2023-05-12T06:28:22;95188.72;;;12.32;89.25
44297;BME280;51842;47.450;8.654;2023-05-12T06:30:47;95188.28;;;12.43;88.47
44297;BME280;51842;47.450;8.654;2023-05-12T06:33:13;95197.28;;;12.53;88.10
44297;BME280;51842;47.450;8.654;2023-05-12T06:35:39;95197.41;;;12.85;88.95
44297;BME280;51842;47.450;8.654;2023-05-12T06:38:05;95202.19;;;13.07;88.14
44297;BME280;51842;47.450;8.654;2023-05-12T06:40:31;95198.41;;;13.08;82.99
44297;BME280;51842;47.450;8.654;2023-05-12T06:42:56;95196.97;;;13.16;84.16
44297;BME280;51842;47.450;8.654;2023-05-12T06:45:22;95202.31;;;13.16;83.47
44297;BME280;51842;47.450;8.654;2023-05-12T06:47:48;95196.25;;;13.10;83.92
44297;BME280;51842;47.450;8.654;2023-05-12T06:50:14;95200.16;;;13.18;82.03
44297;BME280;51842;47.450;8.654;2023-05-12T06:52:42;95200.88;;;13.24;83.35
44297;BME280;51842;47.450;8.654;2023-05-12T06:55:09;95187.38;;;13.34;82.52
44297;BME280;51842;47.450;8.654;2023-05-12T06:57:35;95201.16;;;13.41;84.57
44297;BME280;51842;47.450;8.654;2023-05-12T07:00:01;95197.25;;;13.52;84.45
44297;BME280;51842;47.450;8.654;2023-05-12T07:02:28;95194.78;;;13.88;84.48
44297;BME280;51842;47.450;8.654;2023-05-12T07:04:55;95195.50;;;14.08;82.87
44297;BME280;51842;47.450;8.654;2023-05-12T07:07:21;95196.53;;;14.40;83.01
44297;BME280;51842;47.450;8.654;2023-05-12T07:09:46;95188.78;;;14.38;78.52
44297;BME280;51842;47.450;8.654;2023-05-12T07:12:12;95197.13;;;14.23;79.96
44297;BME280;51842;47.450;8.654;2023-05-12T07:14:38;95189.19;;;14.45;78.75
44297;BME280;51842;47.450;8.654;2023-05-12T07:17:04;95196.25;;;14.55;77.80
44297;BME280;51842;47.450;8.654;2023-05-12T07:19:31;95192.69;;;14.73;76.43
44297;BME280;51842;47.450;8.654;2023-05-12T07:21:56;95196.53;;;14.95;78.13
44297;BME280;51842;47.450;8.654;2023-05-12T07:24:23;95196.66;;;15.12;69.79
44297;BME280;51842;47.450;8.654;2023-05-12T07:26:49;95194.00;;;15.35;70.50
44297;BME280;51842;47.450;8.654;2023-05-12T07:29:15;95195.22;;;15.28;68.41
44297;BME280;51842;47.450;8.654;2023-05-12T07:31:42;95191.91;;;15.09;69.23
44297;BME280;51842;47.450;8.654;2023-05-12T07:34:07;95192.03;;;14.90;71.37
44297;BME280;51842;47.450;8.654;2023-05-12T07:36:33;95191.22;;;15.03;71.41
44297;BME280;51842;47.450;8.654;2023-05-12T07:38:59;95191.22;;;15.40;70.88
44297;BME280;51842;47.450;8.654;2023-05-12T07:41:25;95190.19;;;15.13;70.49
44297;BME280;51842;47.450;8.654;2023-05-12T07:43:51;95187.84;;;15.34;70.33
44297;BME280;51842;47.450;8.654;2023-05-12T07:46:16;95185.84;;;15.62;69.47
44297;BME280;51842;47.450;8.654;2023-05-12T07:48:42;95184.94;;;15.89;69.25
44297;BME280;51842;47.450;8.654;2023-05-12T07:51:09;95179.59;;;16.29;65.63
44297;BME280;51842;47.450;8.654;2023-05-12T07:53:34;95183.72;;;16.35;62.70
44297;BME280;51842;47.450;8.654;2023-05-12T07:56:01;95188.84;;;16.46;62.46
44297;BME280;51842;47.450;8.654;2023-05-12T07:58:27;95180.31;;;16.52;61.27
44297;BME280;51842;47.450;8.654;2023-05-12T08:00:52;95177.03;;;16.64;59.63
44297;BME280;51842;47.450;8.654;2023-05-12T08:03:19;95172.34;;;16.87;62.20
44297;BME280;51842;47.450;8.654;2023-05-12T08:05:45;95177.81;;;16.73;62.19
44297;BME280;51842;47.450;8.654;2023-05-12T08:08:10;95180.78;;;17.03;60.33
44297;BME280;51842;47.450;8.654;2023-05-12T08:10:44;95181.69;;;16.41;61.74
44297;BME280;51842;47.450;8.654;2023-05-12T08:13:10;95183.75;;;16.84;63.59
44297;BME280;51842;47.450;8.654;2023-05-12T08:15:36;95177.28;;;17.02;65.24
44297;BME280;51842;47.450;8.654;2023-05-12T08:18:02;95176.81;;;17.44;64.17
44297;BME280;51842;47.450;8.654;2023-05-12T08:20:28;95184.88;;;17.87;61.65
44297;BME280;51842;47.450;8.654;2023-05-12T08:22:53;95181.53;;;17.99;61.29
44297;BME280;51842;47.450;8.654;2023-05-12T08:25:19;95179.56;;;18.17;60.58
44297;BME280;51842;47.450;8.654;2023-05-12T08:27:45;95176.44;;;18.06;58.49
44297;BME280;51842;47.450;8.654;2023-05-12T08:30:11;95182.19;;;17.96;58.92
44297;BME280;51842;47.450;8.654;2023-05-12T08:32:37;95180.41;;;18.00;58.50
44297;BME280;51842;47.450;8.654;2023-05-12T08:35:04;95179.03;;;18.32;57.81
44297;BME280;51842;47.450;8.654;2023-05-12T08:37:30;95180.13;;;18.78;56.82
44297;BME280;51842;47.450;8.654;2023-05-12T08:39:57;95179.25;;;18.86;57.48
44297;BME280;51842;47.450;8.654;2023-05-12T08:42:49;95177.34;;;18.57;56.54
44297;BME280;51842;47.450;8.654;2023-05-12T08:45:20;95179.78;;;18.80;54.91
44297;BME280;51842;47.450;8.654;2023-05-12T08:47:49;95184.56;;;19.04;57.45
44297;BME280;51842;47.450;8.654;2023-05-12T08:50:17;95176.63;;;19.28;56.12
44297;BME280;51842;47.450;8.654;2023-05-12T08:52:46;95178.84;;;19.47;54.80
44297;BME280;51842;47.450;8.654;2023-05-12T08:55:13;95181.94;;;19.79;54.04
44297;BME280;51842;47.450;8.654;2023-05-12T08:57:40;95181.56;;;19.68;52.73
44297;BME280;51842;47.450;8.654;2023-05-12T09:00:11;95184.72;;;19.70;52.33
44297;BME280;51842;47.450;8.654;2023-05-12T09:02:39;95189.41;;;19.94;52.99
44297;BME280;51842;47.450;8.654;2023-05-12T09:05:10;95185.41;;;20.13;52.02
44297;BME280;51842;47.450;8.654;2023-05-12T09:07:42;95186.25;;;20.38;50.09
44297;BME280;51842;47.450;8.654;2023-05-12T09:10:15;95185.78;;;20.48;50.36
44297;BME280;51842;47.450;8.654;2023-05-12T09:12:45;95178.06;;;19.26;51.55
44297;BME280;51842;47.450;8.654;2023-05-12T09:15:25;95188.53;;;19.06;51.58
44297;BME280;51842;47.450;8.654;2023-05-12T09:17:51;95183.03;;;18.94;51.33
44297;BME280;51842;47.450;8.654;2023-05-12T09:20:17;95177.91;;;17.51;53.31
44297;BME280;51842;47.450;8.654;2023-05-12T09:22:43;95178.88;;;17.12;55.36
44297;BME280;51842;47.450;8.654;2023-05-12T09:25:17;95189.47;;;17.61;53.15
44297;BME280;51842;47.450;8.654;2023-05-12T09:27:48;95187.97;;;18.15;51.98
44297;BME280;51842;47.450;8.654;2023-05-12T09:30:29;95179.72;;;18.59;51.03
44297;BME280;51842;47.450;8.654;2023-05-12T09:33:10;95173.81;;;18.74;51.58
44297;BME280;51842;47.450;8.654;2023-05-12T09:35:44;95174.75;;;18.99;50.57
44297;BME280;51842;47.450;8.654;2023-05-12T09:38:12;95173.50;;;19.38;50.17
44297;BME280;51842;47.450;8.654;2023-05-12T09:40:39;95176.72;;;19.74;48.92
44297;BME280;51842;47.450;8.654;2023-05-12T09:43:05;95159.56;;;19.91;48.77
44297;BME280;51842;47.450;8.654;2023-05-12T09:45:36;95160.16;;;19.96;51.01
44297;BME280;51842;47.450;8.654;2023-05-12T09:48:11;95165.38;;;20.38;51.32
44297;BME280;51842;47.450;8.654;2023-05-12T09:50:48;95156.59;;;20.41;50.23
44297;BME280;51842;47.450;8.654;2023-05-12T09:53:18;95171.16;;;20.61;49.26
44297;BME280;51842;47.450;8.654;2023-05-12T09:55:48;95152.41;;;20.93;48.60
44297;BME280;51842;47.450;8.654;2023-05-12T09:58:16;95163.16;;;20.89;46.31
44297;BME280;51842;47.450;8.654;2023-05-12T10:00:43;95164.25;;;21.13;46.52
44297;BME280;51842;47.450;8.654;2023-05-12T10:03:15;95159.81;;;21.20;43.69
44297;BME280;51842;47.450;8.654;2023-05-12T10:06:11;95155.56;;;20.33;43.23
44297;BME280;51842;47.450;8.654;2023-05-12T10:11:39;95157.84;;;20.31;44.23
44297;BME280;51842;47.450;8.654;2023-05-12T10:14:06;95163.41;;;20.60;43.01
44297;BME280;51842;47.450;8.654;2023-05-12T10:16:35;95156.06;;;20.85;42.91
44297;BME280;51842;47.450;8.654;2023-05-12T10:19:02;95156.38;;;20.95;44.64
44297;BME280;51842;47.450;8.654;2023-05-12T10:21:29;95152.00;;;20.78;43.26
44297;BME280;51842;47.450;8.654;2023-05-12T10:23:56;95147.66;;;20.16;43.37
44297;BME280;51842;47.450;8.654;2023-05-12T10:26:23;95153.53;;;20.30;44.88
44297;BME280;51842;47.450;8.654;2023-05-12T10:28:49;95154.88;;;20.24;44.77
44297;BME280;51842;47.450;8.654;2023-05-12T10:31:17;95154.75;;;20.21;45.58
44297;BME280;51842;47.450;8.654;2023-05-12T10:33:54;95158.13;;;20.05;44.96
44297;BME280;51842;47.450;8.654;2023-05-12T10:36:20;95143.94;;;20.08;45.18
44297;BME280;51842;47.450;8.654;2023-05-12T10:38:47;95149.75;;;20.56;46.67
44297;BME280;51842;47.450;8.654;2023-05-12T10:41:28;95146.38;;;20.59;46.17
44297;BME280;51842;47.450;8.654;2023-05-12T10:43:53;95146.56;;;19.72;43.70
44297;BME280;51842;47.450;8.654;2023-05-12T10:46:21;95132.75;;;19.85;44.23
44297;BME280;51842;47.450;8.654;2023-05-12T10:51:48;95146.78;;;20.49;43.81
44297;BME280;51842;47.450;8.654;2023-05-12T10:54:24;95140.47;;;20.94;43.06
44297;BME280;51842;47.450;8.654;2023-05-12T10:56:51;95146.91;;;20.77;45.21
44297;BME280;51842;47.450;8.654;2023-05-12T10:59:23;95152.19;;;20.49;45.40
44297;BME280;51842;47.450;8.654;2023-05-12T11:04:40;95147.81;;;19.32;45.12
44297;BME280;51842;47.450;8.654;2023-05-12T11:07:12;95144.94;;;18.66;46.04
44297;BME280;51842;47.450;8.654;2023-05-12T11:09:42;95160.03;;;17.55;50.27
44297;BME280;51842;47.450;8.654;2023-05-12T11:12:10;95149.38;;;17.85;46.57
44297;BME280;51842;47.450;8.654;2023-05-12T11:14:38;95150.28;;;17.98;47.67
44297;BME280;51842;47.450;8.654;2023-05-12T11:17:05;95145.66;;;18.07;46.13
44297;BME280;51842;47.450;8.654;2023-05-12T11:19:31;95151.78;;;18.25;45.07
44297;BME280;51842;47.450;8.654;2023-05-12T11:22:08;95146.41;;;18.25;44.97
44297;BME280;51842;47.450;8.654;2023-05-12T11:24:37;95146.69;;;18.32;47.59
44297;BME280;51842;47.450;8.654;2023-05-12T11:27:04;95148.66;;;18.53;46.87
44297;BME280;51842;47.450;8.654;2023-05-12T11:29:31;95145.88;;;18.40;43.56
44297;BME280;51842;47.450;8.654;2023-05-12T11:31:57;95141.31;;;18.23;43.74
44297;BME280;51842;47.450;8.654;2023-05-12T11:34:26;95129.25;;;18.30;45.46
44297;BME280;51842;47.450;8.654;2023-05-12T11:36:54;95132.78;;;18.21;45.11
44297;BME280;51842;47.450;8.654;2023-05-12T11:39:24;95142.41;;;18.31;44.45
44297;BME280;51842;47.450;8.654;2023-05-12T11:41:50;95139.59;;;18.19;46.87
44297;BME280;51842;47.450;8.654;2023-05-12T11:44:23;95136.00;;;18.44;43.75
44297;BME280;51842;47.450;8.654;2023-05-12T11:46:59;95123.34;;;19.16;45.42
44297;BME280;51842;47.450;8.654;2023-05-12T11:49:30;95139.19;;;19.93;44.92
44297;BME280;51842;47.450;8.654;2023-05-12T11:52:00;95125.03;;;19.42;43.21
44297;BME280;51842;47.450;8.654;2023-05-12T11:54:30;95125.31;;;19.95;43.36
44297;BME280;51842;47.450;8.654;2023-05-12T11:56:56;95138.13;;;20.43;42.35
44297;BME280;51842;47.450;8.654;2023-05-12T11:59:31;95136.78;;;20.74;41.28
44297;BME280;51842;47.450;8.654;2023-05-12T12:02:02;95137.72;;;20.08;43.74
44297;BME280;51842;47.450;8.654;2023-05-12T12:04:37;95132.84;;;19.89;43.62
44297;BME280;51842;47.450;8.654;2023-05-12T12:07:04;95132.75;;;19.85;45.39
44297;BME280;51842;47.450;8.654;2023-05-12T12:09:41;95134.13;;;18.95;43.34
44297;BME280;51842;47.450;8.654;2023-05-12T12:12:09;95138.88;;;19.40;46.66
44297;BME280;51842;47.450;8.654;2023-05-12T12:14:37;95133.81;;;19.18;43.70
44297;BME280;51842;47.450;8.654;2023-05-12T12:17:05;95137.16;;;18.94;46.24
44297;BME280;51842;47.450;8.654;2023-05-12T12:19:31;95131.69;;;19.24;46.55
44297;BME280;51842;47.450;8.654;2023-05-12T12:21:57;95133.88;;;19.09;46.08
44297;BME280;51842;47.450;8.654;2023-05-12T12:24:24;95134.63;;;18.68;48.02
44297;BME280;51842;47.450;8.654;2023-05-12T12:26:50;95128.72;;;18.07;46.95
44297;BME280;51842;47.450;8.654;2023-05-12T12:29:16;95126.06;;;18.66;47.90
44297;BME280;51842;47.450;8.654;2023-05-12T12:31:42;95122.03;;;19.23;46.33
44297;BME280;51842;47.450;8.654;2023-05-12T12:34:08;95130.78;;;19.74;44.57
44297;BME280;51842;47.450;8.654;2023-05-12T12:36:34;95127.25;;;19.94;46.30
44297;BME280;51842;47.450;8.654;2023-05-12T12:39:01;95118.13;;;19.99;44.51
44297;BME280;51842;47.450;8.654;2023-05-12T12:41:28;95123.72;;;20.64;44.28
44297;BME280;51842;47.450;8.654;2023-05-12T12:43:54;95121.56;;;20.69;42.97
44297;BME280;51842;47.450;8.654;2023-05-12T12:46:19;95119.66;;;20.70;41.93
44297;BME280;51842;47.450;8.654;2023-05-12T12:48:45;95117.38;;;20.35;43.24
44297;BME280;51842;47.450;8.654;2023-05-12T12:51:11;95121.31;;;20.38;41.84
44297;BME280;51842;47.450;8.654;2023-05-12T12:53:37;95113.38;;;21.06;43.63
44297;BME280;51842;47.450;8.654;2023-05-12T12:56:03;95110.47;;;21.67;42.17
44297;BME280;51842;47.450;8.654;2023-05-12T12:58:29;95100.34;;;21.80;41.54
44297;BME280;51842;47.450;8.654;2023-05-12T13:00:55;95103.84;;;21.53;38.65
44297;BME280;51842;47.450;8.654;2023-05-12T13:03:22;95105.03;;;21.67;38.08
44297;BME280;51842;47.450;8.654;2023-05-12T13:05:49;95099.16;;;21.65;39.67
44297;BME280;51842;47.450;8.654;2023-05-12T13:08:15;95095.22;;;21.91;39.95